createdAt,value
2019-01-26T00:01:47.349Z,30.87
2019-01-26T00:11:52.684Z,33.03
2019-01-26T00:21:58.991Z,36.00
2019-01-26T00:32:04.534Z,35.90
2019-01-26T00:42:09.816Z,34.20
2019-01-26T00:52:15.407Z,33.10
2019-01-26T01:02:20.712Z,34.43
2019-01-26T01:12:26.079Z,34.20
2019-01-26T01:22:31.562Z,33.83
2019-01-26T01:32:37.030Z,34.63
2019-01-26T01:42:42.724Z,32.50
2019-01-26T01:52:48.004Z,32.87
2019-01-26T02:02:53.301Z,34.47
2019-01-26T02:12:58.662Z,34.03
2019-01-26T02:23:04.069Z,33.87
2019-01-26T02:33:09.392Z,35.87
2019-01-26T02:43:15.674Z,34.50
2019-01-26T02:53:21.068Z,34.90
2019-01-26T03:03:26.401Z,34.07
2019-01-26T03:13:31.686Z,33.50
2019-01-26T03:23:36.966Z,34.23
2019-01-26T03:33:42.239Z,30.20
2019-01-26T03:43:47.512Z,31.57
2019-01-26T03:53:52.829Z,32.63
2019-01-26T04:03:58.377Z,32.57
2019-01-26T04:14:03.716Z,31.53
2019-01-26T04:24:08.978Z,29.37
2019-01-26T04:34:14.395Z,28.40
2019-01-26T04:44:19.750Z,30.70
2019-01-26T04:54:24.980Z,29.97
2019-01-26T05:04:30.283Z,29.93
2019-01-26T05:14:35.652Z,27.67
2019-01-26T05:24:41.071Z,29.03
2019-01-26T05:34:46.370Z,28.93
2019-01-26T05:44:51.559Z,28.63
2019-01-26T05:54:56.926Z,29.03
2019-01-26T06:05:02.355Z,28.37
2019-01-26T06:15:08.232Z,28.83
2019-01-26T06:25:14.689Z,30.73
2019-01-26T06:35:20.569Z,27.17
2019-01-26T06:45:25.880Z,29.67
2019-01-26T06:55:31.178Z,30.33
2019-01-26T07:05:47.610Z,32.00
2019-01-26T07:15:53.750Z,31.40
2019-01-26T07:25:59.041Z,30.73
2019-01-26T07:36:04.373Z,29.03
2019-01-26T07:46:09.796Z,31.73
2019-01-26T07:56:15.131Z,30.30
2019-01-26T08:06:20.645Z,29.70
2019-01-26T08:16:26.037Z,27.57
2019-01-26T08:26:31.335Z,28.67
2019-01-26T08:36:36.815Z,26.97
2019-01-26T08:46:43.210Z,28.10
2019-01-26T08:56:48.645Z,27.70
2019-01-26T09:06:57.646Z,27.80
2019-01-26T09:17:03.200Z,26.30
2019-01-26T09:27:08.695Z,27.67
2019-01-26T09:37:13.958Z,27.57
2019-01-26T09:47:20.199Z,28.60
2019-01-26T09:57:25.593Z,29.40
2019-01-26T10:07:32.677Z,27.07
2019-01-26T10:17:38.037Z,27.40
2019-01-26T10:27:43.360Z,30.83
2019-01-26T10:37:48.700Z,34.10
2019-01-26T10:47:54.414Z,32.73
2019-01-26T10:57:59.768Z,34.43
2019-01-26T11:08:05.147Z,34.87
2019-01-26T11:18:10.594Z,32.83
2019-01-26T11:28:15.956Z,32.27
2019-01-26T11:38:21.323Z,31.23
2019-01-26T11:48:30.084Z,29.60
2019-01-26T11:58:35.466Z,29.00
2019-01-26T12:08:40.992Z,28.50
2019-01-26T12:18:46.652Z,29.03
2019-01-26T12:28:51.963Z,29.63
2019-01-26T12:38:57.365Z,30.10
2019-01-26T12:49:02.631Z,30.97
2019-01-26T12:59:08.933Z,29.70
2019-01-26T13:09:14.227Z,27.90
2019-01-26T13:19:19.769Z,27.97
2019-01-26T13:29:25.189Z,28.87
2019-01-26T13:39:30.563Z,27.37
2019-01-26T13:49:36.128Z,31.27
2019-01-26T13:59:41.578Z,30.80
2019-01-26T14:09:46.938Z,28.47
2019-01-26T14:19:52.402Z,32.43
2019-01-26T14:29:57.846Z,33.23
2019-01-26T14:40:03.275Z,34.00
2019-01-26T14:50:09.896Z,31.77
2019-01-26T15:00:18.959Z,31.63
2019-01-26T15:10:24.565Z,37.00
2019-01-26T15:20:32.633Z,38.73
2019-01-26T15:30:42.855Z,39.40
2019-01-26T15:40:48.319Z,38.77
2019-01-26T15:50:53.600Z,37.83
2019-01-26T16:00:58.956Z,36.47
2019-01-26T16:11:04.533Z,37.70
2019-01-26T16:21:09.893Z,37.27
2019-01-26T16:31:15.363Z,38.27
2019-01-26T16:41:20.758Z,39.33
2019-01-26T16:51:26.099Z,40.10
2019-01-26T17:01:31.359Z,36.60
2019-01-26T17:11:36.605Z,39.13
2019-01-26T17:21:41.949Z,38.23
2019-01-26T17:31:47.293Z,37.80
2019-01-26T17:41:52.565Z,41.00
2019-01-26T17:51:57.886Z,43.17
2019-01-26T18:02:03.204Z,41.70
2019-01-26T18:12:08.508Z,42.33
2019-01-26T18:22:14.041Z,40.40
2019-01-26T18:32:20.913Z,44.43
2019-01-26T18:42:26.335Z,36.67
2019-01-26T18:52:31.822Z,43.07
2019-01-26T19:02:38.205Z,46.50
2019-01-26T19:12:43.643Z,50.47
2019-01-26T19:22:49.054Z,45.17
2019-01-26T19:32:54.482Z,46.70
2019-01-26T19:42:59.874Z,41.83
2019-01-26T19:53:05.422Z,42.93
2019-01-26T20:03:10.757Z,43.07
2019-01-26T20:13:16.000Z,43.07
2019-01-26T20:23:21.343Z,43.80
2019-01-26T20:33:26.887Z,42.30
2019-01-26T20:43:32.254Z,42.80
2019-01-26T20:53:37.687Z,43.00
2019-01-26T21:03:44.071Z,43.13
2019-01-26T21:13:49.476Z,41.73
2019-01-26T21:23:54.790Z,42.73
2019-01-26T21:34:00.090Z,41.03
2019-01-26T21:44:05.792Z,41.17
2019-01-26T21:54:11.302Z,41.50
2019-01-26T22:04:16.647Z,42.33
2019-01-26T22:14:21.988Z,39.73
2019-01-26T22:24:27.567Z,45.23
2019-01-26T22:34:32.801Z,42.33
2019-01-26T22:44:38.157Z,42.37
2019-01-26T22:54:43.438Z,42.80
2019-01-26T23:05:18.207Z,44.13
2019-01-26T23:16:07.989Z,47.77
2019-01-26T23:26:32.026Z,45.93
2019-01-26T23:36:37.397Z,45.93
2019-01-26T23:46:42.691Z,47.10
2019-01-26T23:56:47.939Z,45.57
